Terminal Aerodrome Forecast
Issued by NWS Tiyan, Guam

Home | Current Version | Previous Version | Text Only | Print | Product List | Glossary On
Versions: 1 2 3 4 5 6 7 8 9 10 11 12 13 14 15 16 17 18 19 20 21 22 23 24 25 26
000
FTPQ31 PGUM 281720
TAFGUM
TAF
PGUM 281720Z 2818/2924 VRB04KT P6SM VCSH FEW022
     FM290200 VRB05KT P6SM VCSH SCT018 SCT030 BKN060=

USA.gov is the U.S. government's official web portal to all federal, state and local government web resources and services.